Time;durP1;ratioP1;P1;durP2;ratioP2;P2;SDS_P1;SDS_P2;PMS_P1;PMS_P2;Temp;Humidity;BMP_temperature;BMP_pressure;BME280_temperature;BME280_humidity;BME280_pressure;Samples;Min_cycle;Max_cycle;Signal;HPM_P1;HPM_P2
2022/05/07 00:02:08;;;;;;;;;;;;;;;25.76;39.66;94661.38;4967103;28;7213;-63
2022/05/07 00:04:37;;;;;;;;;;;;;;;25.75;40.35;94653.63;4930194;28;7281;-63
2022/05/07 00:07:05;;;;;;;;;;;;;;;25.77;40.21;94667.66;4956371;28;9113;-63
2022/05/07 00:09:37;;;;;;;;;;;;;;;25.73;40.45;94667.88;4968108;28;9117;-63
2022/05/07 00:12:06;;;;;;;;;;;;;;;25.75;40.15;94664.66;4966968;28;7242;-63
2022/05/07 00:14:34;;;;;;;;;;;;;;;25.73;40.26;94654.13;4948656;28;9179;-63
2022/05/07 00:19:50;;;;;;;;;;;;;;;25.74;40.48;94652.13;4947222;28;8754;-63
2022/05/07 00:22:17;;;;;;;;;;;;;;;25.72;40.12;94652.63;4944632;28;8777;-62
2022/05/07 00:24:50;;;;;;;;;;;;;;;25.71;39.64;94658.66;4944409;28;7232;-63
2022/05/07 00:27:16;;;;;;;;;;;;;;;25.72;39.57;94660.13;4967953;28;9165;-63
2022/05/07 00:29:42;;;;;;;;;;;;;;;25.72;39.43;94658.13;4944643;28;7282;-63
2022/05/07 00:32:09;;;;;;;;;;;;;;;25.69;39.90;94653.63;4966498;28;7230;-63
2022/05/07 00:34:35;;;;;;;;;;;;;;;25.72;39.61;94665.66;4952630;28;9095;-63
2022/05/07 00:37:04;;;;;;;;;;;;;;;25.69;40.05;94650.88;4959939;28;9164;-63
2022/05/07 00:39:30;;;;;;;;;;;;;;;25.69;39.52;94655.63;4949169;28;7230;-63
2022/05/07 00:42:15;;;;;;;;;;;;;;;25.71;39.67;94650.38;4955560;28;9071;-63
2022/05/07 00:44:42;;;;;;;;;;;;;;;25.69;39.73;94650.13;4947886;28;7272;-63
2022/05/07 00:47:30;;;;;;;;;;;;;;;25.70;39.56;94649.63;4952536;28;7297;-63
2022/05/07 00:53:23;;;;;;;;;;;;;;;25.71;40.40;94642.84;4948625;28;7287;-63
2022/05/07 00:55:52;;;;;;;;;;;;;;;25.68;40.13;94643.88;4958724;28;7468;-63
2022/05/07 00:58:19;;;;;;;;;;;;;;;25.68;39.83;94648.63;4968475;28;9645;-63
2022/05/07 01:00:58;;;;;;;;;;;;;;;25.68;40.45;94634.84;4949731;28;7216;-63
2022/05/07 01:03:35;;;;;;;;;;;;;;;25.67;39.70;94634.09;4952694;28;7094;-63
2022/05/07 01:06:05;;;;;;;;;;;;;;;25.66;39.93;94638.13;4951774;28;7367;-63
2022/05/07 01:08:34;;;;;;;;;;;;;;;25.64;39.41;94639.88;4945351;28;7147;-63
2022/05/07 01:11:01;;;;;;;;;;;;;;;25.66;40.16;94642.88;4949836;28;7476;-62
2022/05/07 01:13:30;;;;;;;;;;;;;;;25.64;40.00;94637.88;4953147;28;9151;-63
2022/05/07 01:15:58;;;;;;;;;;;;;;;25.66;40.40;94634.63;4938161;28;9074;-63
2022/05/07 01:18:32;;;;;;;;;;;;;;;25.64;39.86;94637.88;4951232;28;7209;-63
2022/05/07 01:20:58;;;;;;;;;;;;;;;25.63;40.20;94636.38;4943735;28;8773;-62
2022/05/07 01:23:27;;;;;;;;;;;;;;;25.65;39.71;94633.84;4945254;28;9535;-63
2022/05/07 01:26:02;;;;;;;;;;;;;;;25.63;39.95;94630.84;4953729;28;9045;-62
2022/05/07 01:28:28;;;;;;;;;;;;;;;25.62;40.07;94623.09;4952695;28;9119;-63
2022/05/07 01:31:01;;;;;;;;;;;;;;;25.62;40.28;94626.59;4952308;28;7054;-63
2022/05/07 01:33:27;;;;;;;;;;;;;;;25.62;39.30;94628.63;4962160;28;9571;-62
2022/05/07 01:35:53;;;;;;;;;;;;;;;25.61;39.41;94621.59;4962241;28;7559;-62
2022/05/07 01:38:19;;;;;;;;;;;;;;;25.60;39.76;94626.34;4963185;28;9532;-62
2022/05/07 01:40:45;;;;;;;;;;;;;;;25.60;39.51;94625.63;4942188;28;7891;-62
2022/05/07 01:43:11;;;;;;;;;;;;;;;25.59;39.84;94624.88;4942928;28;9162;-62
2022/05/07 01:45:37;;;;;;;;;;;;;;;25.58;39.52;94628.84;4946525;28;9142;-62
2022/05/07 01:48:10;;;;;;;;;;;;;;;25.58;39.62;94628.13;4959585;28;9307;-63
2022/05/07 01:50:41;;;;;;;;;;;;;;;25.57;40.40;94621.88;4943037;28;8689;-62
2022/05/07 01:53:13;;;;;;;;;;;;;;;25.59;39.72;94624.88;4931791;28;9286;-62
2022/05/07 01:55:45;;;;;;;;;;;;;;;25.58;39.76;94619.88;4945152;28;6982;-62
2022/05/07 01:58:13;;;;;;;;;;;;;;;25.57;39.42;94627.38;4949595;28;7254;-62
2022/05/07 02:01:04;;;;;;;;;;;;;;;25.58;40.20;94622.63;4940270;28;7875;-62
2022/05/07 02:03:43;;;;;;;;;;;;;;;25.58;39.69;94622.63;4946347;28;7367;-62
2022/05/07 02:06:09;;;;;;;;;;;;;;;25.55;39.93;94623.63;4957407;28;9340;-62
2022/05/07 02:08:37;;;;;;;;;;;;;;;25.55;40.14;94618.88;4959931;28;9082;-62
2022/05/07 02:11:05;;;;;;;;;;;;;;;25.54;39.08;94622.09;4951098;28;9353;-62
2022/05/07 02:13:31;;;;;;;;;;;;;;;25.52;39.29;94619.88;4964965;28;9130;-62
2022/05/07 02:16:03;;;;;;;;;;;;;;;25.52;39.70;94614.34;4936586;28;6988;-62
2022/05/07 02:18:29;;;;;;;;;;;;;;;25.51;39.57;94615.63;4932837;28;9014;-62
2022/05/07 02:20:59;;;;;;;;;;;;;;;25.52;40.41;94616.34;4945952;28;9051;-62
2022/05/07 02:23:26;;;;;;;;;;;;;;;25.51;39.46;94612.13;4938372;28;9227;-62
2022/05/07 02:25:55;;;;;;;;;;;;;;;25.50;39.63;94611.38;4946040;28;8208;-62
2022/05/07 02:28:20;;;;;;;;;;;;;;;25.52;39.96;94614.34;4948505;28;7563;-62
2022/05/07 02:30:46;;;;;;;;;;;;;;;25.50;39.70;94611.38;4938975;28;7119;-62
2022/05/07 02:33:12;;;;;;;;;;;;;;;25.50;40.04;94608.59;4942363;28;7141;-62
2022/05/07 02:35:38;;;;;;;;;;;;;;;25.50;39.23;94616.13;4938224;28;7320;-62
2022/05/07 02:38:05;;;;;;;;;;;;;;;25.46;39.97;94608.13;4950408;28;6996;-62
2022/05/07 02:42:33;;;;;;;;;;;;;;;25.49;39.58;94609.84;4952147;28;7391;-62
2022/05/07 02:43:19;;;;;;;;;;;;;;;25.49;39.35;94614.63;4947426;28;8933;-62
2022/05/07 02:45:47;;;;;;;;;;;;;;;25.48;39.32;94605.63;4961976;28;7302;-62
2022/05/07 02:48:15;;;;;;;;;;;;;;;25.48;39.51;94610.38;4945142;29;9067;-62
2022/05/07 02:50:42;;;;;;;;;;;;;;;25.46;39.48;94607.38;4951735;28;7999;-62
2022/05/07 02:53:12;;;;;;;;;;;;;;;25.45;40.25;94603.13;4949759;29;9337;-62
2022/05/07 02:55:41;;;;;;;;;;;;;;;25.46;39.80;94607.38;4951194;29;6864;-62
2022/05/07 02:58:08;;;;;;;;;;;;;;;25.43;39.33;94606.38;4951873;28;9169;-62
2022/05/07 03:00:34;;;;;;;;;;;;;;;25.42;39.98;94602.13;4949576;29;9137;-62
2022/05/07 03:03:00;;;;;;;;;;;;;;;25.43;39.69;94606.38;4949347;28;7274;-62
2022/05/07 03:05:29;;;;;;;;;;;;;;;25.44;39.69;94599.63;4935826;29;7054;-62
2022/05/07 03:08:14;;;;;;;;;;;;;;;25.45;40.13;94606.59;4946442;29;7696;-62
2022/05/07 03:10:41;;;;;;;;;;;;;;;25.43;39.38;94600.84;4963863;28;9285;-62
2022/05/07 03:13:16;;;;;;;;;;;;;;;25.44;39.62;94591.34;4937773;28;8224;-62
2022/05/07 03:15:42;;;;;;;;;;;;;;;25.45;39.41;94597.63;4942986;28;7535;-62
2022/05/07 03:18:41;;;;;;;;;;;;;;;25.43;39.49;94589.84;4946133;28;7367;-62
2022/05/07 03:21:07;;;;;;;;;;;;;;;25.41;39.51;94586.81;4943027;28;8749;-62
2022/05/07 03:23:59;;;;;;;;;;;;;;;25.41;39.47;94589.56;4925190;29;7571;-62
2022/05/07 03:26:27;;;;;;;;;;;;;;;25.40;39.42;94591.56;4929973;28;7260;-62
2022/05/07 03:28:53;;;;;;;;;;;;;;;25.39;39.75;94584.59;4936423;28;9331;-62
2022/05/07 03:31:21;;;;;;;;;;;;;;;25.36;39.61;94577.31;4922577;28;7306;-62
2022/05/07 03:33:47;;;;;;;;;;;;;;;25.37;39.97;94586.34;4928854;28;7239;-62
2022/05/07 03:36:15;;;;;;;;;;;;;;;25.35;39.59;94583.34;4933442;28;7292;-62
2022/05/07 03:38:43;;;;;;;;;;;;;;;25.37;40.03;94586.34;4944449;28;7303;-62
2022/05/07 03:41:10;;;;;;;;;;;;;;;25.38;40.03;94582.34;4929745;28;7276;-62
2022/05/07 03:43:37;;;;;;;;;;;;;;;25.36;39.59;94585.56;4918353;29;9780;-62
2022/05/07 03:46:07;;;;;;;;;;;;;;;25.35;39.65;94588.84;4928617;28;9125;-62
2022/05/07 03:48:35;;;;;;;;;;;;;;;25.32;40.12;94587.09;4930655;28;7404;-62
2022/05/07 03:51:05;;;;;;;;;;;;;;;25.35;40.18;94589.59;4933743;28;7285;-62
2022/05/07 03:53:32;;;;;;;;;;;;;;;25.33;40.30;94585.84;4915224;29;9249;-62
2022/05/07 03:55:59;;;;;;;;;;;;;;;25.34;40.19;94584.56;4931218;28;9082;-62
2022/05/07 03:58:27;;;;;;;;;;;;;;;25.33;39.97;94580.34;4943183;28;9242;-62
2022/05/07 04:00:55;;;;;;;;;;;;;;;25.33;39.82;94575.59;4953637;28;9456;-62
2022/05/07 04:03:21;;;;;;;;;;;;;;;25.32;39.90;94573.31;4969693;28;7196;-62
2022/05/07 04:05:48;;;;;;;;;;;;;;;25.31;39.92;94578.09;4964927;28;8957;-63
2022/05/07 04:08:17;;;;;;;;;;;;;;;25.31;40.06;94578.09;4955933;28;9130;-62
2022/05/07 04:10:46;;;;;;;;;;;;;;;25.33;39.51;94585.84;4952676;28;7834;-63
2022/05/07 04:13:13;;;;;;;;;;;;;;;25.33;40.08;94583.09;4952357;28;9393;-63
2022/05/07 04:15:39;;;;;;;;;;;;;;;25.31;39.74;94589.13;4936898;28;7390;-63
2022/05/07 04:18:17;;;;;;;;;;;;;;;25.29;40.22;94588.84;4968521;28;7667;-63
2022/05/07 04:20:44;;;;;;;;;;;;;;;25.30;39.38;94590.34;4936706;28;7248;-63
2022/05/07 04:23:18;;;;;;;;;;;;;;;25.26;39.54;94589.09;4950552;28;7062;-63
2022/05/07 04:25:44;;;;;;;;;;;;;;;25.29;40.02;94588.13;4949459;28;8748;-63
2022/05/07 04:28:10;;;;;;;;;;;;;;;25.29;39.85;94585.34;4966926;28;7084;-63
2022/05/07 04:30:36;;;;;;;;;;;;;;;25.27;40.00;94583.09;4951370;28;7011;-63
2022/05/07 04:33:02;;;;;;;;;;;;;;;25.26;40.03;94586.34;4959134;28;7777;-63
2022/05/07 04:35:29;;;;;;;;;;;;;;;25.23;39.99;94587.34;4952931;28;7063;-63
2022/05/07 04:37:55;;;;;;;;;;;;;;;25.23;39.14;94590.09;4946171;28;7267;-63
2022/05/07 04:40:21;;;;;;;;;;;;;;;25.23;39.43;94595.59;4948470;28;9096;-63
2022/05/07 04:43:21;;;;;;;;;;;;;;;25.24;39.35;94599.88;4951079;28;7043;-63
2022/05/07 04:45:48;;;;;;;;;;;;;;;25.23;39.77;94593.63;4906301;29;9431;-63
2022/05/07 04:48:14;;;;;;;;;;;;;;;25.23;39.19;94598.38;4915793;29;9580;-63
2022/05/07 04:50:42;;;;;;;;;;;;;;;25.22;39.02;94594.13;4914214;29;9425;-63
2022/05/07 04:53:08;;;;;;;;;;;;;;;25.24;39.63;94605.38;4923890;29;9465;-63
2022/05/07 04:55:35;;;;;;;;;;;;;;;25.26;39.69;94602.88;4919420;28;7204;-63
2022/05/07 04:58:03;;;;;;;;;;;;;;;25.23;39.37;94598.38;4922966;29;7017;-63
2022/05/07 05:00:35;;;;;;;;;;;;;;;25.24;39.14;94602.63;4926372;29;9091;-62
2022/05/07 05:03:02;;;;;;;;;;;;;;;25.20;39.57;94605.66;4915342;29;7206;-63
2022/05/07 05:05:29;;;;;;;;;;;;;;;25.22;38.99;94607.88;4909933;29;7251;-63
2022/05/07 05:07:57;;;;;;;;;;;;;;;25.21;39.64;94606.38;4932401;29;6970;-63
2022/05/07 05:10:53;;;;;;;;;;;;;;;25.22;39.04;94613.41;4922871;29;8176;-63
2022/05/07 05:13:19;;;;;;;;;;;;;;;25.23;39.11;94606.63;4894651;29;7206;-63
2022/05/07 05:15:45;;;;;;;;;;;;;;;25.26;39.13;94609.13;4892797;29;9109;-63
2022/05/07 05:18:13;;;;;;;;;;;;;;;25.23;39.07;94610.13;4893112;29;10384;-63
2022/05/07 05:20:39;;;;;;;;;;;;;;;25.21;39.27;94606.38;4875402;29;9099;-63
2022/05/07 05:23:06;;;;;;;;;;;;;;;25.20;39.08;94611.16;4882373;29;9054;-63
2022/05/07 05:25:35;;;;;;;;;;;;;;;25.22;39.58;94614.16;4887872;29;7098;-63
2022/05/07 05:28:01;;;;;;;;;;;;;;;25.19;38.73;94620.66;4895118;29;7143;-63
2022/05/07 05:30:27;;;;;;;;;;;;;;;25.17;39.49;94614.16;4887845;29;9119;-63
2022/05/07 05:32:55;;;;;;;;;;;;;;;25.18;38.95;94623.91;4895373;29;9367;-64
2022/05/07 05:35:22;;;;;;;;;;;;;;;25.19;39.40;94626.16;4897724;29;8611;-63
2022/05/07 05:37:48;;;;;;;;;;;;;;;25.19;39.37;94628.16;4884875;29;7163;-64
2022/05/07 05:40:14;;;;;;;;;;;;;;;25.21;38.83;94628.41;4879607;29;7908;-63
2022/05/07 05:42:49;;;;;;;;;;;;;;;25.18;39.99;94630.19;4893236;29;9117;-63
2022/05/07 05:45:27;;;;;;;;;;;;;;;25.19;39.57;94628.16;4885017;29;7055;-63
2022/05/07 05:47:54;;;;;;;;;;;;;;;25.17;39.33;94628.66;4888353;29;9933;-63
2022/05/07 05:50:25;;;;;;;;;;;;;;;25.17;39.42;94630.66;4926400;28;9136;-63
2022/05/07 05:52:55;;;;;;;;;;;;;;;25.20;40.13;94629.66;4950730;28;7301;-63
2022/05/07 05:55:29;;;;;;;;;;;;;;;25.19;39.43;94623.41;4955293;28;7837;-62
2022/05/07 05:58:07;;;;;;;;;;;;;;;25.18;39.70;94621.16;4953796;28;7410;-62
2022/05/07 06:00:34;;;;;;;;;;;;;;;25.22;39.23;94627.16;4952020;28;9179;-62
2022/05/07 06:03:00;;;;;;;;;;;;;;;25.16;39.51;94626.41;4950020;28;8100;-61
2022/05/07 06:05:35;;;;;;;;;;;;;;;25.17;39.53;94623.16;4967828;28;9188;-61
2022/05/07 06:08:06;;;;;;;;;;;;;;;25.15;39.76;94622.16;4953752;28;9065;-62
2022/05/07 06:10:40;;;;;;;;;;;;;;;25.18;40.22;94623.91;4950554;28;9400;-62
2022/05/07 06:13:10;;;;;;;;;;;;;;;25.18;39.75;94618.41;4957642;28;7259;-62
2022/05/07 06:15:40;;;;;;;;;;;;;;;25.16;40.06;94621.66;4952755;28;7638;-62
2022/05/07 06:18:26;;;;;;;;;;;;;;;25.17;39.86;94619.66;4965791;28;7292;-62
2022/05/07 06:20:54;;;;;;;;;;;;;;;25.16;39.61;94623.66;4962121;28;7447;-63
2022/05/07 06:23:36;;;;;;;;;;;;;;;25.16;40.55;94616.16;4949619;28;9104;-63
2022/05/07 06:29:20;;;;;;;;;;;;;;;25.19;40.50;94628.16;4945364;28;7267;-63
2022/05/07 06:31:46;;;;;;;;;;;;;;;25.20;40.00;94632.41;4959703;28;9025;-63
2022/05/07 06:34:13;;;;;;;;;;;;;;;25.23;40.70;94626.66;4933164;28;7275;-62
2022/05/07 06:36:39;;;;;;;;;;;;;;;25.28;40.00;94634.16;4960124;28;8957;-64
2022/05/07 06:39:07;;;;;;;;;;;;;;;25.31;40.82;94627.66;4936976;28;7244;-63
2022/05/07 06:41:33;;;;;;;;;;;;;;;25.36;40.27;94639.88;4945594;28;7268;-63
2022/05/07 06:43:59;;;;;;;;;;;;;;;25.41;40.11;94633.63;4943571;28;9052;-63
2022/05/07 06:46:25;;;;;;;;;;;;;;;25.45;39.50;94636.91;4939249;28;9625;-63
2022/05/07 06:48:51;;;;;;;;;;;;;;;25.48;39.70;94635.91;4944703;28;7288;-63
2022/05/07 06:51:18;;;;;;;;;;;;;;;25.51;39.58;94631.41;4945755;28;7222;-63
2022/05/07 06:53:46;;;;;;;;;;;;;;;25.53;39.92;94637.91;4952064;28;7257;-63
2022/05/07 06:56:31;;;;;;;;;;;;;;;25.56;39.38;94636.13;4936237;29;7896;-63
2022/05/07 06:59:00;;;;;;;;;;;;;;;25.59;38.87;94638.63;4953864;28;7333;-63
2022/05/07 07:01:32;;;;;;;;;;;;;;;25.63;39.38;94630.84;4947996;28;6983;-63
2022/05/07 07:04:00;;;;;;;;;;;;;;;25.66;39.78;94640.88;4950956;28;7275;-63
2022/05/07 07:06:29;;;;;;;;;;;;;;;25.67;39.04;94642.38;4952988;28;7282;-63
2022/05/07 07:08:57;;;;;;;;;;;;;;;25.72;39.22;94640.84;4946018;29;7659;-63
2022/05/07 07:11:32;;;;;;;;;;;;;;;25.74;38.96;94647.34;4942076;28;7082;-63
2022/05/07 07:13:58;;;;;;;;;;;;;;;25.76;38.59;94644.09;4946046;28;9226;-63
2022/05/07 07:16:24;;;;;;;;;;;;;;;25.78;38.83;94647.84;4950683;28;6994;-63
2022/05/07 07:18:50;;;;;;;;;;;;;;;25.82;38.34;94639.31;4945480;28;7147;-63
2022/05/07 07:21:18;;;;;;;;;;;;;;;25.89;38.61;94642.28;4950081;28;7005;-63
2022/05/07 07:23:53;;;;;;;;;;;;;;;25.97;38.37;94631.47;4954209;28;7015;-62
2022/05/07 07:26:26;;;;;;;;;;;;;;;26.06;38.59;94631.19;4951195;29;8450;-63
2022/05/07 07:28:53;;;;;;;;;;;;;;;26.10;38.00;94632.47;4953958;28;7196;-63
2022/05/07 07:31:21;;;;;;;;;;;;;;;26.17;37.91;94629.16;4939344;28;8890;-64
2022/05/07 07:33:47;;;;;;;;;;;;;;;26.25;37.97;94634.91;4945205;28;7282;-63
2022/05/07 07:36:14;;;;;;;;;;;;;;;26.31;37.57;94634.88;4949376;28;9891;-63
2022/05/07 07:38:45;;;;;;;;;;;;;;;26.35;38.31;94632.59;4943287;28;9167;-63
2022/05/07 07:41:11;;;;;;;;;;;;;;;26.39;37.73;94633.81;4944597;28;7963;-63
2022/05/07 07:43:40;;;;;;;;;;;;;;;26.44;37.96;94635.06;4947901;28;8962;-64
2022/05/07 07:49:02;;;;;;;;;;;;;;;26.51;37.56;94626.22;4948794;28;8592;-64
2022/05/07 07:51:42;;;;;;;;;;;;;;;26.56;37.19;94631.69;4941348;28;9185;-64
2022/05/07 07:54:14;;;;;;;;;;;;;;;26.58;37.39;94634.69;4958537;28;6988;-64
2022/05/07 07:56:49;;;;;;;;;;;;;;;26.62;37.52;94634.44;4944100;29;7448;-63
2022/05/07 07:59:17;;;;;;;;;;;;;;;26.65;37.62;94634.16;4947082;29;7234;-64
2022/05/07 08:01:43;;;;;;;;;;;;;;;26.67;37.31;94639.16;4944883;29;8735;-65
2022/05/07 08:04:25;;;;;;;;;;;;;;;26.72;37.73;94641.13;4949016;28;6934;-64
2022/05/07 08:12:24;;;;;;;;;;;;;;;26.77;37.37;94635.59;4947557;28;9508;-64
2022/05/07 08:14:50;;;;;;;;;;;;;;;26.78;37.66;94642.63;4956118;28;8754;-64
2022/05/07 08:17:18;;;;;;;;;;;;;;;26.78;37.42;94639.09;4961296;28;7342;-65
2022/05/07 08:19:44;;;;;;;;;;;;;;;26.78;37.40;94642.63;4949134;28;7218;-65
2022/05/07 08:22:10;;;;;;;;;;;;;;;26.79;37.09;94638.63;4960335;28;9078;-65
2022/05/07 08:24:38;;;;;;;;;;;;;;;26.80;37.82;94644.88;4946757;28;7095;-65
2022/05/07 08:27:06;;;;;;;;;;;;;;;26.81;37.19;94646.38;4959476;28;9068;-64
2022/05/07 08:29:32;;;;;;;;;;;;;;;26.80;37.60;94642.84;4947503;28;7061;-64
2022/05/07 08:32:00;;;;;;;;;;;;;;;26.78;37.28;94641.88;4940755;28;8443;-64
2022/05/07 08:34:30;;;;;;;;;;;;;;;26.77;37.41;94648.66;4954293;28;6865;-64
2022/05/07 08:36:55;;;;;;;;;;;;;;;26.75;38.11;94645.66;4966367;28;8813;-64
2022/05/07 08:39:25;;;;;;;;;;;;;;;26.78;37.46;94650.16;4965680;28;7994;-64
2022/05/07 08:41:51;;;;;;;;;;;;;;;26.75;37.79;94648.44;4934759;28;7268;-64
2022/05/07 08:44:17;;;;;;;;;;;;;;;26.77;37.93;94649.38;4944682;28;9069;-64
2022/05/07 08:46:44;;;;;;;;;;;;;;;26.77;38.33;94651.44;4946153;28;9048;-64
2022/05/07 08:49:12;;;;;;;;;;;;;;;26.75;37.49;94653.94;4956537;28;7023;-63
2022/05/07 08:51:41;;;;;;;;;;;;;;;26.76;37.48;94655.44;4939696;28;7393;-64
2022/05/07 08:54:10;;;;;;;;;;;;;;;26.74;38.08;94652.44;4946251;28;7273;-64
2022/05/07 08:56:38;;;;;;;;;;;;;;;26.72;37.88;94654.94;4943309;28;7102;-64
2022/05/07 08:59:04;;;;;;;;;;;;;;;26.72;37.73;94654.94;4965385;28;7044;-64
2022/05/07 09:01:30;;;;;;;;;;;;;;;26.71;37.99;94654.19;4949902;28;8954;-63
2022/05/07 09:04:11;;;;;;;;;;;;;;;26.72;37.73;94641.13;4953905;28;7151;-63
2022/05/07 09:06:38;;;;;;;;;;;;;;;26.70;37.83;94647.19;4944908;28;7543;-63
2022/05/07 09:09:06;;;;;;;;;;;;;;;26.68;38.68;94649.69;4963770;28;7398;-64
2022/05/07 09:11:42;;;;;;;;;;;;;;;26.67;38.20;94652.94;4940389;28;9078;-63
2022/05/07 09:14:14;;;;;;;;;;;;;;;26.66;37.68;94652.22;4947423;28;6867;-64
2022/05/07 09:16:42;;;;;;;;;;;;;;;26.64;38.29;94648.47;4963903;28;9331;-64
2022/05/07 09:19:31;;;;;;;;;;;;;;;26.64;38.14;94654.00;4963616;28;9137;-64
2022/05/07 09:22:26;;;;;;;;;;;;;;;26.64;38.48;94662.28;4958690;28;6856;-64
2022/05/07 09:24:57;;;;;;;;;;;;;;;26.58;38.88;94656.00;4967468;28;7258;-64
2022/05/07 09:27:23;;;;;;;;;;;;;;;26.58;38.15;94656.00;4957545;28;7420;-63
2022/05/07 09:30:02;;;;;;;;;;;;;;;26.58;38.07;94658.78;4945828;28;7113;-64
2022/05/07 09:32:38;;;;;;;;;;;;;;;26.55;38.15;94651.53;4949223;28;9260;-64
2022/05/07 09:38:02;;;;;;;;;;;;;;;26.52;38.41;94652.53;4948268;28;8206;-64
2022/05/07 09:40:45;;;;;;;;;;;;;;;26.53;38.72;94652.06;4961022;28;6868;-64
2022/05/07 09:43:22;;;;;;;;;;;;;;;26.53;38.39;94648.53;4948345;28;7872;-64
2022/05/07 09:45:52;;;;;;;;;;;;;;;26.50;39.08;94649.56;4961305;28;7458;-63
2022/05/07 09:48:30;;;;;;;;;;;;;;;26.48;39.05;94650.06;4963813;28;7516;-63
2022/05/07 09:51:00;;;;;;;;;;;;;;;26.48;37.95;94646.56;4951355;28;7270;-63
2022/05/07 09:59:00;;;;;;;;;;;;;;;26.42;38.85;94648.59;4951477;28;7840;-63
2022/05/07 10:02:08;;;;;;;;;;;;;;;26.41;38.95;94652.59;4944538;28;6940;-63
2022/05/07 10:04:43;;;;;;;;;;;;;;;26.40;39.13;94646.38;4944510;28;7258;-63
2022/05/07 10:07:28;;;;;;;;;;;;;;;26.41;39.21;94647.09;4943548;28;8956;-63
2022/05/07 10:10:09;;;;;;;;;;;;;;;26.36;38.85;94648.63;4939599;28;7064;-63
2022/05/07 10:12:37;;;;;;;;;;;;;;;26.40;39.64;94645.59;4933125;28;9057;-63
2022/05/07 10:15:07;;;;;;;;;;;;;;;26.38;39.65;94643.34;4947263;28;7346;-64
2022/05/07 10:17:34;;;;;;;;;;;;;;;26.36;39.43;94636.84;4958710;28;9182;-63
2022/05/07 10:20:07;;;;;;;;;;;;;;;26.37;39.06;94638.34;4938405;28;7289;-63
2022/05/07 10:22:33;;;;;;;;;;;;;;;26.37;39.71;94632.81;4944907;28;7106;-63
2022/05/07 10:25:05;;;;;;;;;;;;;;;26.38;38.74;94634.34;4955567;28;7244;-62
2022/05/07 10:27:51;;;;;;;;;;;;;;;26.36;38.83;94634.81;4932479;28;9155;-63
2022/05/07 10:30:23;;;;;;;;;;;;;;;26.36;39.46;94640.34;4952848;28;9388;-63
2022/05/07 10:33:04;;;;;;;;;;;;;;;26.37;38.85;94636.34;4939322;28;8432;-64
2022/05/07 10:35:42;;;;;;;;;;;;;;;26.34;39.23;94631.09;4947033;28;6924;-63
2022/05/07 10:38:33;;;;;;;;;;;;;;;26.37;39.88;94630.06;4939165;28;9457;-64
2022/05/07 10:41:17;;;;;;;;;;;;;;;26.34;40.44;94622.84;4946803;28;8962;-64
2022/05/07 10:44:09;;;;;;;;;;;;;;;26.36;40.40;94625.81;4954482;28;7167;-63
2022/05/07 10:46:43;;;;;;;;;;;;;;;26.37;40.55;94624.56;4944777;28;7287;-62
2022/05/07 10:49:09;;;;;;;;;;;;;;;26.39;40.26;94622.78;4958120;28;7301;-63
2022/05/07 10:51:56;;;;;;;;;;;;;;;26.38;40.51;94632.31;4944630;28;6962;-64
2022/05/07 10:54:35;;;;;;;;;;;;;;;26.40;39.94;94623.53;4947111;28;9562;-64
2022/05/07 10:57:02;;;;;;;;;;;;;;;26.38;39.81;94626.06;4943818;29;9059;-62
2022/05/07 10:59:30;;;;;;;;;;;;;;;26.38;40.43;94626.06;4939902;29;9736;-63
2022/05/07 11:02:16;;;;;;;;;;;;;;;26.36;40.03;94626.56;4949078;28;7286;-64
2022/05/07 11:04:51;;;;;;;;;;;;;;;26.38;40.49;94617.78;4948684;29;7445;-64
2022/05/07 11:07:21;;;;;;;;;;;;;;;26.37;40.94;94624.56;4954224;28;9146;-64
2022/05/07 11:09:49;;;;;;;;;;;;;;;26.37;41.08;94622.56;4947241;28;7416;-64
2022/05/07 11:12:18;;;;;;;;;;;;;;;26.36;41.04;94617.56;4924258;29;9033;-64
2022/05/07 11:14:44;;;;;;;;;;;;;;;26.37;40.50;94619.03;4950071;28;7299;-64
2022/05/07 11:17:10;;;;;;;;;;;;;;;26.37;40.80;94621.78;4948560;28;6860;-64
2022/05/07 11:19:46;;;;;;;;;;;;;;;26.37;40.39;94608.75;4947740;29;8853;-64
2022/05/07 11:22:29;;;;;;;;;;;;;;;26.39;40.55;94602.72;4940619;29;9023;-64
2022/05/07 11:25:01;;;;;;;;;;;;;;;26.38;39.99;94604.00;4949200;28;7006;-64
2022/05/07 11:27:37;;;;;;;;;;;;;;;26.37;40.54;94597.72;4951647;28;9406;-65
2022/05/07 11:30:04;;;;;;;;;;;;;;;26.40;40.17;94602.22;4950481;29;9510;-64
2022/05/07 11:32:38;;;;;;;;;;;;;;;26.40;40.14;94601.47;4958715;28;9483;-64
2022/05/07 11:35:04;;;;;;;;;;;;;;;26.40;40.53;94598.72;4953872;28;7105;-63
2022/05/07 11:37:39;;;;;;;;;;;;;;;26.42;40.82;94602.47;4946552;28;6955;-64
2022/05/07 11:40:08;;;;;;;;;;;;;;;26.41;40.22;94598.19;4957961;28;8629;-64
2022/05/07 11:42:38;;;;;;;;;;;;;;;26.42;40.51;94596.19;4950454;28;7003;-63
2022/05/07 11:45:26;;;;;;;;;;;;;;;26.45;39.88;94603.44;4954963;28;8207;-65
2022/05/07 11:48:00;;;;;;;;;;;;;;;26.43;40.16;94594.91;4941913;28;9601;-63
2022/05/07 11:50:30;;;;;;;;;;;;;;;26.42;40.80;94582.41;4948282;28;9077;-64
2022/05/07 11:53:10;;;;;;;;;;;;;;;26.45;40.53;94581.38;4943503;28;7620;-64
2022/05/07 11:55:40;;;;;;;;;;;;;;;26.47;40.77;94578.88;4939125;28;7283;-64
2022/05/07 11:58:24;;;;;;;;;;;;;;;26.46;39.94;94578.13;4969548;28;9029;-64
2022/05/07 12:00:57;;;;;;;;;;;;;;;26.46;40.30;94580.88;4952335;28;7212;-64
2022/05/07 12:03:25;;;;;;;;;;;;;;;26.45;39.77;94579.38;4938152;28;7416;-64
2022/05/07 12:05:53;;;;;;;;;;;;;;;26.47;40.53;94573.34;4952359;28;7074;-64
2022/05/07 12:08:24;;;;;;;;;;;;;;;26.42;40.23;94568.63;4947940;28;7156;-64
2022/05/07 12:10:53;;;;;;;;;;;;;;;26.42;40.26;94572.13;4950038;28;9075;-64
2022/05/07 12:13:24;;;;;;;;;;;;;;;26.39;39.83;94561.34;4960244;28;9092;-63
2022/05/07 12:18:51;;;;;;;;;;;;;;;26.44;40.63;94566.09;4952915;28;7906;-63
2022/05/07 12:29:55;;;;;;;;;;;;;;;26.46;40.15;94569.84;4947902;28;7179;-62
2022/05/07 12:32:26;;;;;;;;;;;;;;;26.39;40.92;94558.59;4939438;28;8528;-58
2022/05/07 12:34:52;;;;;;;;;;;;;;;26.06;40.86;94557.53;4938805;28;9526;-56
2022/05/07 12:37:19;;;;;;;;;;;;;;;25.96;41.81;94555.59;4952506;28;8598;-57
2022/05/07 12:39:45;;;;;;;;;;;;;;;25.97;41.00;94562.56;4968079;28;7495;-56
2022/05/07 12:42:12;;;;;;;;;;;;;;;25.96;41.83;94559.09;4939822;28;7394;-57
2022/05/07 12:44:43;;;;;;;;;;;;;;;26.01;41.37;94555.53;4949909;28;7070;-56
2022/05/07 12:47:14;;;;;;;;;;;;;;;26.03;40.73;94553.03;4951380;28;9660;-56
2022/05/07 12:49:43;;;;;;;;;;;;;;;26.05;40.98;94550.53;4963731;28;9153;-56
2022/05/07 12:52:10;;;;;;;;;;;;;;;26.09;41.60;94539.25;4952851;28;8786;-57
2022/05/07 12:54:38;;;;;;;;;;;;;;;26.13;41.21;94536.97;4953386;28;7407;-57
2022/05/07 12:57:04;;;;;;;;;;;;;;;26.18;41.55;94547.22;4949797;28;7594;-57
2022/05/07 12:59:30;;;;;;;;;;;;;;;26.18;41.52;94541.72;4946210;28;7202;-56
2022/05/07 13:02:01;;;;;;;;;;;;;;;26.21;41.56;94535.16;4949082;28;7389;-57
2022/05/07 13:04:29;;;;;;;;;;;;;;;26.28;40.99;94534.59;4953808;28;9425;-56
2022/05/07 13:06:56;;;;;;;;;;;;;;;26.32;40.64;94546.09;4944357;28;7434;-56
2022/05/07 13:09:30;;;;;;;;;;;;;;;26.33;40.42;94535.84;4950124;28;7949;-55
2022/05/07 13:12:02;;;;;;;;;;;;;;;26.35;40.55;94539.59;4967407;28;9089;-56
2022/05/07 13:14:35;;;;;;;;;;;;;;;26.37;40.74;94536.31;4967723;28;9314;-56
2022/05/07 13:17:15;;;;;;;;;;;;;;;26.37;40.85;94530.78;4948760;28;7286;-56
2022/05/07 13:19:41;;;;;;;;;;;;;;;26.39;40.57;94526.25;4952396;28;9036;-55
2022/05/07 13:22:09;;;;;;;;;;;;;;;26.40;40.34;94524.25;4966483;28;7760;-56
2022/05/07 13:24:46;;;;;;;;;;;;;;;26.41;40.90;94529.25;4963828;28;8350;-56
2022/05/07 13:27:16;;;;;;;;;;;;;;;26.40;40.72;94515.97;4953769;28;7259;-56
2022/05/07 13:29:42;;;;;;;;;;;;;;;26.40;40.89;94519.50;4950092;28;9099;-55
2022/05/07 13:32:08;;;;;;;;;;;;;;;26.42;41.44;94510.69;4964312;28;7376;-57
2022/05/07 13:34:35;;;;;;;;;;;;;;;26.45;40.95;94510.41;4965350;28;7229;-57
2022/05/07 13:37:02;;;;;;;;;;;;;;;26.46;41.58;94511.91;4950789;28;6932;-56
2022/05/07 13:39:36;;;;;;;;;;;;;;;26.45;41.42;94506.91;4937980;28;7474;-57
2022/05/07 13:42:09;;;;;;;;;;;;;;;26.49;40.87;94513.63;4951213;28;7223;-57
2022/05/07 13:44:37;;;;;;;;;;;;;;;26.50;40.85;94517.16;4944559;28;9044;-56
2022/05/07 13:47:06;;;;;;;;;;;;;;;26.48;41.15;94520.44;4938918;28;7003;-57
2022/05/07 13:49:35;;;;;;;;;;;;;;;26.46;40.29;94522.97;4960405;28;7255;-56
2022/05/07 13:52:04;;;;;;;;;;;;;;;26.45;41.10;94529.72;4944117;28;8734;-58
2022/05/07 13:54:32;;;;;;;;;;;;;;;26.43;40.65;94529.50;4964632;28;8757;-57